createdAt,value
2023-12-18T00:01:57.449Z,21.57
2023-12-18T00:04:25.597Z,22.03
2023-12-18T00:06:53.731Z,22.47
2023-12-18T00:09:21.923Z,23.10
2023-12-18T00:11:50.124Z,22.47
2023-12-18T00:14:18.915Z,21.57
2023-12-18T00:16:48.423Z,21.53
2023-12-18T00:19:16.733Z,21.07
2023-12-18T00:21:44.965Z,20.60
2023-12-18T00:24:13.648Z,20.97
2023-12-18T00:26:41.754Z,22.30
2023-12-18T00:29:09.912Z,20.97
2023-12-18T00:31:38.064Z,21.80
2023-12-18T00:34:07.772Z,22.37
2023-12-18T00:36:36.089Z,20.23
2023-12-18T00:39:04.321Z,20.93
2023-12-18T00:41:32.500Z,23.27
2023-12-18T00:44:00.678Z,25.13
2023-12-18T00:46:28.810Z,26.83
2023-12-18T00:48:57.137Z,25.80
2023-12-18T00:51:26.927Z,23.40
2023-12-18T00:53:55.145Z,22.23
2023-12-18T00:56:23.296Z,22.73
2023-12-18T00:58:51.427Z,24.20
2023-12-18T01:01:19.657Z,24.93
2023-12-18T01:03:47.822Z,29.67
2023-12-18T01:06:16.049Z,44.30
2023-12-18T01:08:45.623Z,41.40
2023-12-18T01:11:13.763Z,49.97
2023-12-18T01:13:41.899Z,53.57
2023-12-18T01:16:10.041Z,55.80
2023-12-18T01:18:38.198Z,56.57
2023-12-18T01:21:06.912Z,53.27
2023-12-18T01:23:35.512Z,51.30
2023-12-18T01:26:05.338Z,47.57
2023-12-18T01:28:32.444Z,50.13
2023-12-18T01:31:00.919Z,58.47
2023-12-18T01:33:29.296Z,67.33
2023-12-18T01:35:57.535Z,66.53
2023-12-18T01:38:25.744Z,63.53
2023-12-18T01:40:53.934Z,68.43
2023-12-18T01:43:27.896Z,79.20
2023-12-18T01:45:59.005Z,69.50
2023-12-18T01:48:28.214Z,62.47
2023-12-18T01:50:57.507Z,49.80
2023-12-18T01:53:29.682Z,53.50
2023-12-18T01:55:59.299Z,42.93
2023-12-18T01:58:30.723Z,37.67
2023-12-18T02:00:59.534Z,48.10
2023-12-18T02:03:29.973Z,44.77
2023-12-18T02:05:58.759Z,45.00
2023-12-18T02:08:27.399Z,48.13
2023-12-18T02:10:55.659Z,48.57
2023-12-18T02:13:24.448Z,49.00
2023-12-18T02:15:54.167Z,49.53
2023-12-18T02:18:22.702Z,41.50
2023-12-18T02:20:50.960Z,33.87
2023-12-18T02:23:21.718Z,34.83
2023-12-18T02:25:50.215Z,34.30
2023-12-18T02:28:19.531Z,35.23
2023-12-18T02:30:47.828Z,37.40
2023-12-18T02:33:16.352Z,36.73
2023-12-18T02:35:45.096Z,34.00
2023-12-18T02:38:13.247Z,36.47
2023-12-18T02:40:43.865Z,35.10
2023-12-18T02:43:12.480Z,34.80
2023-12-18T02:45:40.637Z,35.47
2023-12-18T02:48:09.616Z,37.10
2023-12-18T02:50:37.964Z,38.40
2023-12-18T02:53:06.365Z,34.53
2023-12-18T02:55:34.479Z,35.50
2023-12-18T02:58:04.094Z,32.63
2023-12-18T03:00:32.240Z,37.83
2023-12-18T03:03:00.542Z,39.47
2023-12-18T03:05:28.737Z,39.00
2023-12-18T03:07:56.965Z,38.83
2023-12-18T03:10:25.133Z,39.53
2023-12-18T03:12:53.204Z,40.93
2023-12-18T03:15:22.787Z,38.23
2023-12-18T03:17:51.219Z,38.43
2023-12-18T03:20:19.363Z,38.23
2023-12-18T03:22:47.722Z,38.93
2023-12-18T03:25:16.336Z,38.57
2023-12-18T03:27:44.825Z,36.57
2023-12-18T03:30:13.582Z,35.33
2023-12-18T03:32:43.178Z,35.10
2023-12-18T03:35:11.354Z,31.87
2023-12-18T03:37:39.719Z,33.57
2023-12-18T03:40:09.351Z,31.03
2023-12-18T06:27:27.489Z,50.40
2023-12-18T06:29:55.729Z,47.33
2023-12-18T06:32:24.397Z,40.50
2023-12-18T06:34:52.872Z,38.40
2023-12-18T06:37:21.052Z,36.13
2023-12-18T06:39:50.034Z,38.07
2023-12-18T06:42:18.226Z,35.63
2023-12-18T06:44:47.843Z,36.83
2023-12-18T06:47:16.001Z,34.63
2023-12-18T06:49:44.190Z,38.00
2023-12-18T06:52:12.503Z,37.77
2023-12-18T06:54:41.224Z,38.13
2023-12-18T06:57:09.614Z,38.03
2023-12-18T06:59:38.210Z,36.77
2023-12-18T07:02:07.901Z,39.90
2023-12-18T07:04:36.022Z,38.93
2023-12-18T07:07:04.146Z,38.83
2023-12-18T07:09:32.372Z,38.83
2023-12-18T07:12:00.581Z,36.97
2023-12-18T07:14:28.724Z,38.10
2023-12-18T07:16:57.251Z,37.23
2023-12-18T07:19:26.899Z,37.07
2023-12-18T07:21:55.209Z,37.43
2023-12-18T07:24:23.471Z,34.63
2023-12-18T07:26:51.676Z,34.93
2023-12-18T07:29:19.885Z,35.10
2023-12-18T07:31:48.397Z,34.80
2023-12-18T07:34:17.066Z,35.07
2023-12-18T07:36:46.748Z,36.13
2023-12-18T07:39:15.116Z,34.73
2023-12-18T07:41:43.228Z,34.10
2023-12-18T07:44:11.914Z,33.23
2023-12-18T07:46:40.039Z,38.23
2023-12-18T07:49:08.448Z,38.37
2023-12-18T07:51:37.716Z,40.33
2023-12-18T07:54:11.551Z,39.73
2023-12-18T07:56:39.693Z,41.23
2023-12-18T07:59:08.938Z,39.97
2023-12-18T08:01:37.278Z,40.70
2023-12-18T08:04:05.770Z,38.13
2023-12-18T08:06:33.876Z,36.53
2023-12-18T08:09:02.057Z,32.50
2023-12-18T08:11:31.611Z,32.73
2023-12-18T08:13:59.683Z,29.87
2023-12-18T08:16:28.996Z,29.00
2023-12-18T08:18:57.351Z,30.73
2023-12-18T08:21:27.119Z,31.13
2023-12-18T08:23:55.283Z,27.43
2023-12-18T08:26:24.776Z,25.50
2023-12-18T08:28:54.239Z,26.00
2023-12-18T08:31:23.362Z,25.17
2023-12-18T08:33:51.772Z,23.83
2023-12-18T08:36:20.132Z,22.83
2023-12-18T08:38:48.371Z,22.67
2023-12-18T08:41:16.631Z,27.87
2023-12-18T08:43:46.922Z,28.53
2023-12-18T08:46:21.979Z,29.80
2023-12-18T08:48:50.192Z,30.57
2023-12-18T08:51:18.429Z,31.30
2023-12-18T08:53:46.574Z,31.23
2023-12-18T08:56:14.741Z,31.10
2023-12-18T08:58:42.814Z,30.03
2023-12-18T09:01:11.126Z,29.83
2023-12-18T09:03:40.811Z,29.53
2023-12-18T09:06:09.118Z,27.70
2023-12-18T09:08:40.993Z,25.97
2023-12-18T09:11:10.052Z,25.43
2023-12-18T09:13:38.956Z,25.17
2023-12-18T09:16:08.033Z,26.57
2023-12-18T09:18:36.363Z,26.47
2023-12-18T09:21:06.625Z,26.73
2023-12-18T09:23:35.073Z,25.97
2023-12-18T09:26:04.181Z,27.20
2023-12-18T09:28:32.308Z,27.93
2023-12-18T09:31:00.558Z,27.80
2023-12-18T09:33:28.860Z,31.37
2023-12-18T09:35:58.687Z,31.00
2023-12-18T09:38:28.731Z,29.97
2023-12-18T09:40:56.976Z,31.13
2023-12-18T09:43:26.535Z,29.80
2023-12-18T09:45:55.922Z,30.03
2023-12-18T09:48:24.816Z,31.47
2023-12-18T09:50:53.123Z,31.40
2023-12-18T09:53:23.951Z,32.07
2023-12-18T09:55:55.689Z,31.67
2023-12-18T09:58:25.305Z,29.33
2023-12-18T10:00:54.211Z,29.83
2023-12-18T10:03:22.500Z,28.80
2023-12-18T10:05:51.363Z,29.40
2023-12-18T10:08:19.928Z,30.00
2023-12-18T10:10:48.084Z,28.20
2023-12-18T10:13:17.760Z,29.03
2023-12-18T10:15:45.974Z,28.33
2023-12-18T10:18:17.031Z,26.47
2023-12-18T10:20:50.043Z,28.00
2023-12-18T10:23:18.711Z,29.80
2023-12-18T10:25:47.360Z,29.90
2023-12-18T10:28:15.519Z,28.37
2023-12-18T10:30:45.157Z,28.50
2023-12-18T10:33:14.281Z,29.27
2023-12-18T10:35:42.977Z,29.27
2023-12-18T10:38:11.393Z,28.07
2023-12-18T10:40:40.053Z,28.13
2023-12-18T10:43:19.482Z,27.63
2023-12-18T10:45:49.952Z,27.03
2023-12-18T10:48:19.721Z,27.80
2023-12-18T10:50:50.297Z,27.40
2023-12-18T10:53:19.752Z,31.47
2023-12-18T10:55:50.349Z,28.27
2023-12-18T10:58:19.700Z,26.87
2023-12-18T11:00:52.630Z,28.27
2023-12-18T11:03:27.925Z,29.03
2023-12-18T11:05:56.744Z,34.07
2023-12-18T11:08:25.692Z,34.43
2023-12-18T11:10:55.800Z,39.53
2023-12-18T11:13:28.342Z,35.57
2023-12-18T11:16:09.941Z,34.50
2023-12-18T11:18:52.081Z,31.93
2023-12-18T11:21:20.747Z,32.87
2023-12-18T11:24:01.087Z,33.50
2023-12-18T11:26:33.708Z,34.60
2023-12-18T11:29:05.952Z,33.33
2023-12-18T11:31:35.658Z,32.83
2023-12-18T11:34:08.686Z,33.70
2023-12-18T11:36:37.077Z,34.60
2023-12-18T11:39:05.673Z,32.50
2023-12-18T11:41:41.707Z,31.97
2023-12-18T11:44:10.703Z,35.13
2023-12-18T11:46:40.680Z,41.17
2023-12-18T11:49:11.046Z,37.60
2023-12-18T11:51:43.257Z,37.30
2023-12-18T11:54:16.637Z,36.20
2023-12-18T11:56:45.459Z,34.33
2023-12-18T11:59:16.726Z,36.20
2023-12-18T12:01:47.435Z,33.43
2023-12-18T12:04:18.652Z,35.33
2023-12-18T12:06:49.107Z,35.53
2023-12-18T12:09:18.038Z,36.53
2023-12-18T12:11:46.426Z,35.23
2023-12-18T12:14:14.676Z,33.00
2023-12-18T12:16:42.734Z,36.30
2023-12-18T12:19:12.398Z,33.13
2023-12-18T12:21:45.742Z,33.47
2023-12-18T12:24:18.305Z,33.37
2023-12-18T12:26:48.857Z,31.73
2023-12-18T12:29:17.313Z,38.13
2023-12-18T12:31:53.515Z,37.40
2023-12-18T12:34:28.794Z,35.70
2023-12-18T12:36:58.197Z,36.47
2023-12-18T12:39:27.627Z,36.33
2023-12-18T12:41:56.275Z,34.70
2023-12-18T12:44:25.080Z,32.53
2023-12-18T12:46:53.368Z,35.50
2023-12-18T12:49:22.124Z,40.13
2023-12-18T12:51:51.907Z,40.17
2023-12-18T12:54:21.856Z,39.07
2023-12-18T12:56:50.017Z,41.43
2023-12-18T12:59:18.270Z,43.50
2023-12-18T13:01:46.569Z,41.33
2023-12-18T13:04:14.888Z,45.17
2023-12-18T13:06:43.211Z,47.33
2023-12-18T13:09:13.812Z,49.17
2023-12-18T13:11:41.978Z,48.03
2023-12-18T13:14:14.928Z,47.70
2023-12-18T13:16:43.849Z,47.53
2023-12-18T13:19:13.677Z,45.53
2023-12-18T13:21:42.249Z,42.40
2023-12-18T13:24:10.559Z,39.97
2023-12-18T13:26:40.683Z,39.83
2023-12-18T13:29:08.791Z,41.30
2023-12-18T13:31:37.599Z,39.50
2023-12-18T13:34:06.287Z,39.00
2023-12-18T13:36:35.013Z,40.17
2023-12-18T13:39:03.433Z,40.60
2023-12-18T13:41:33.630Z,41.77
2023-12-18T13:44:04.681Z,41.67
2023-12-18T13:46:33.108Z,41.90
2023-12-18T13:49:01.390Z,39.43
2023-12-18T13:51:29.595Z,41.57
2023-12-18T13:53:58.032Z,42.80
2023-12-18T13:56:27.858Z,41.63
2023-12-18T13:58:56.005Z,43.00
2023-12-18T14:01:25.844Z,42.17
2023-12-18T14:03:54.581Z,42.97
2023-12-18T14:06:23.141Z,42.97
2023-12-18T14:08:51.599Z,44.27
2023-12-18T14:11:19.860Z,43.87
2023-12-18T14:13:48.117Z,44.50
2023-12-18T14:16:17.833Z,45.07
2023-12-18T14:18:50.796Z,43.20
2023-12-18T14:21:19.192Z,40.63
2023-12-18T14:23:49.551Z,42.63
2023-12-18T14:26:18.203Z,45.10
2023-12-18T14:28:47.037Z,46.20
2023-12-18T14:31:16.217Z,50.57
2023-12-18T14:33:44.708Z,48.73
2023-12-18T14:36:14.364Z,51.97
2023-12-18T14:38:42.501Z,51.97
2023-12-18T14:41:10.631Z,53.90
2023-12-18T14:43:39.275Z,55.60
2023-12-18T14:46:08.962Z,58.73
2023-12-18T14:48:37.691Z,56.93
2023-12-18T14:51:06.140Z,58.20
2023-12-18T14:53:35.718Z,54.87
2023-12-18T14:56:04.588Z,62.53
2023-12-18T14:58:32.998Z,62.67
2023-12-18T15:01:01.437Z,58.33
2023-12-18T15:03:29.841Z,63.10
2023-12-18T15:05:58.066Z,59.03
2023-12-18T15:08:26.283Z,63.80
2023-12-18T15:10:56.793Z,63.87
2023-12-18T15:13:25.026Z,69.63
2023-12-18T15:15:53.371Z,69.57
2023-12-18T15:18:21.760Z,78.67
2023-12-18T15:20:50.204Z,94.50
2023-12-18T15:23:18.518Z,92.80
2023-12-18T15:25:47.626Z,94.70
2023-12-18T15:28:18.216Z,88.83
2023-12-18T15:30:46.785Z,101.20
2023-12-18T15:33:17.964Z,93.93
2023-12-18T15:35:46.844Z,103.23
2023-12-18T15:38:15.123Z,108.10
2023-12-18T15:40:43.335Z,105.70
2023-12-18T15:43:11.849Z,101.83
2023-12-18T15:45:41.586Z,106.50
2023-12-18T15:48:09.939Z,107.63
2023-12-18T15:50:39.447Z,107.70
2023-12-18T15:53:08.104Z,107.00
2023-12-18T15:55:36.613Z,103.63
2023-12-18T15:58:05.061Z,112.03
2023-12-18T16:00:33.778Z,105.93
2023-12-18T16:03:03.717Z,105.77
2023-12-18T16:05:36.090Z,106.53
2023-12-18T16:08:04.593Z,112.00
2023-12-18T16:10:34.905Z,108.87
2023-12-18T16:13:03.259Z,113.50
2023-12-18T16:15:31.479Z,118.67
2023-12-18T16:17:59.626Z,114.40
2023-12-18T16:20:30.044Z,124.20
2023-12-18T16:22:58.499Z,107.07
2023-12-18T16:25:27.112Z,119.23
2023-12-18T16:27:55.615Z,127.33
2023-12-18T16:30:24.165Z,133.43
2023-12-18T16:32:52.498Z,116.50
2023-12-18T16:35:21.118Z,110.70
2023-12-18T16:37:50.672Z,111.53
2023-12-18T16:40:19.039Z,114.63
2023-12-18T16:42:47.466Z,128.27
2023-12-18T16:45:16.186Z,124.63
2023-12-18T16:47:45.074Z,124.57
2023-12-18T16:50:13.264Z,128.27
2023-12-18T16:52:43.871Z,244.63
2023-12-18T16:55:13.602Z,173.83
2023-12-18T16:57:42.237Z,143.27
2023-12-18T17:00:13.618Z,130.03
2023-12-18T17:02:45.590Z,125.00
2023-12-18T17:05:14.185Z,121.70
2023-12-18T17:07:42.488Z,115.37
2023-12-18T17:10:10.842Z,118.10
2023-12-18T17:12:40.806Z,121.30
2023-12-18T17:15:09.890Z,121.53
2023-12-18T17:17:38.038Z,124.03
2023-12-18T17:20:08.267Z,124.07
2023-12-18T17:22:36.492Z,123.60
2023-12-18T17:25:05.276Z,120.53
2023-12-18T17:27:33.816Z,122.07
2023-12-18T17:30:06.073Z,128.20
2023-12-18T17:32:37.419Z,129.63
2023-12-18T17:35:06.532Z,128.97
2023-12-18T17:37:34.802Z,125.43
2023-12-18T17:40:03.169Z,120.63
2023-12-18T17:42:32.406Z,112.93
2023-12-18T17:45:01.686Z,107.30
2023-12-18T17:47:31.433Z,99.13
2023-12-18T17:50:02.582Z,92.97
2023-12-18T17:52:31.059Z,89.03
2023-12-18T17:54:59.492Z,93.53
2023-12-18T17:57:30.368Z,73.67
2023-12-18T18:00:00.340Z,83.83
2023-12-18T18:02:28.650Z,87.63
2023-12-18T18:04:58.820Z,99.40
2023-12-18T18:07:27.001Z,102.43
2023-12-18T18:09:55.556Z,93.33
2023-12-18T18:12:25.379Z,96.63
2023-12-18T18:14:54.103Z,94.20
2023-12-18T18:17:22.883Z,92.27
2023-12-18T18:19:51.304Z,97.83
2023-12-18T18:22:21.053Z,97.93
2023-12-18T18:24:49.633Z,82.77
2023-12-18T18:27:18.614Z,78.20
2023-12-18T18:29:49.756Z,79.07
2023-12-18T18:32:18.638Z,72.63
2023-12-18T18:34:49.823Z,69.37
2023-12-18T18:37:18.347Z,70.40
2023-12-18T18:39:48.424Z,67.17
2023-12-18T18:42:16.890Z,69.07
2023-12-18T18:44:45.094Z,71.33
2023-12-18T18:47:13.323Z,72.50
2023-12-18T18:49:43.890Z,84.33
2023-12-18T18:52:12.289Z,81.17
2023-12-18T18:54:42.511Z,81.73
2023-12-18T18:57:13.992Z,81.90
2023-12-18T18:59:42.844Z,83.03
2023-12-18T19:02:11.525Z,86.30
2023-12-18T19:04:40.132Z,91.87
2023-12-18T19:07:09.380Z,85.73
2023-12-18T19:09:37.785Z,87.63
2023-12-18T19:12:07.883Z,84.77
2023-12-18T19:14:38.644Z,88.97
2023-12-18T19:17:06.794Z,85.93
2023-12-18T19:19:36.294Z,86.67
2023-12-18T19:22:05.010Z,78.87
2023-12-18T19:24:33.952Z,90.77
2023-12-18T19:27:02.377Z,91.47
2023-12-18T19:29:30.736Z,87.73
2023-12-18T19:32:01.326Z,108.83
2023-12-18T19:34:32.197Z,83.93
2023-12-18T19:37:00.799Z,85.53
2023-12-18T19:39:29.164Z,85.77
2023-12-18T19:41:57.352Z,78.63
2023-12-18T19:44:26.135Z,76.33
2023-12-18T19:46:54.639Z,72.87
2023-12-18T19:49:24.626Z,80.73
2023-12-18T19:51:52.941Z,67.90
2023-12-18T19:54:22.146Z,72.57
2023-12-18T19:56:50.680Z,72.70
2023-12-18T19:59:19.345Z,67.27
2023-12-18T20:01:48.070Z,71.37
2023-12-18T20:04:17.230Z,73.53
2023-12-18T20:06:47.230Z,66.43
2023-12-18T20:09:15.562Z,58.47
2023-12-18T20:11:44.079Z,57.97
2023-12-18T20:14:12.207Z,59.27
2023-12-18T20:16:41.178Z,58.23
2023-12-18T20:19:09.466Z,53.87
2023-12-18T20:21:37.865Z,54.30
2023-12-18T20:24:10.241Z,49.97
2023-12-18T20:26:39.365Z,47.83
2023-12-18T20:29:07.608Z,52.00
2023-12-18T20:31:35.988Z,49.43
2023-12-18T20:34:04.222Z,51.70
2023-12-18T20:36:33.405Z,52.17
2023-12-18T20:39:01.675Z,49.37
2023-12-18T20:41:31.374Z,51.97
2023-12-18T20:43:59.532Z,47.27
2023-12-18T20:46:27.737Z,53.70
2023-12-18T20:48:55.975Z,54.53
2023-12-18T20:51:24.377Z,53.63
2023-12-18T20:53:52.544Z,51.47
2023-12-18T20:56:21.234Z,55.90
2023-12-18T20:58:50.801Z,54.93
2023-12-18T21:01:19.289Z,54.23
2023-12-18T21:03:47.725Z,58.60
2023-12-18T21:06:16.162Z,61.90
2023-12-18T21:08:44.330Z,65.47
2023-12-18T21:11:12.490Z,84.10
2023-12-18T21:13:41.082Z,85.40
2023-12-18T21:16:11.734Z,63.67
2023-12-18T21:18:41.675Z,58.87
2023-12-18T21:21:10.250Z,64.50
2023-12-18T21:23:38.471Z,54.93
2023-12-18T21:26:08.043Z,58.10
2023-12-18T21:28:36.774Z,53.77
2023-12-18T21:31:05.241Z,44.30
2023-12-18T21:33:35.015Z,50.00
2023-12-18T21:36:03.327Z,45.73
2023-12-18T21:38:31.431Z,50.60
2023-12-18T21:41:01.468Z,45.60
2023-12-18T21:43:30.414Z,50.27
2023-12-18T21:45:59.475Z,52.77
2023-12-18T21:48:27.913Z,53.30
2023-12-18T21:50:57.761Z,48.90
2023-12-18T21:53:25.940Z,54.47
2023-12-18T21:55:54.271Z,52.97
2023-12-18T21:58:22.456Z,55.20
2023-12-18T22:00:51.981Z,51.70
2023-12-18T22:03:20.216Z,53.83
2023-12-18T22:05:48.631Z,50.30
2023-12-18T22:08:18.238Z,54.87
2023-12-18T22:10:46.385Z,61.33
2023-12-18T22:13:14.872Z,56.23
2023-12-18T22:15:43.451Z,67.13
2023-12-18T22:18:11.672Z,90.80
2023-12-18T22:20:39.866Z,144.30
2023-12-18T22:23:08.567Z,154.40
2023-12-18T22:25:39.056Z,142.97
2023-12-18T22:28:08.377Z,129.63
2023-12-18T22:30:37.210Z,131.57
2023-12-18T22:33:06.097Z,272.37
2023-12-18T22:35:34.277Z,203.17
2023-12-18T22:38:02.541Z,201.90
2023-12-18T22:40:30.677Z,192.00
2023-12-18T22:43:00.396Z,217.50
2023-12-18T22:45:28.759Z,204.43
2023-12-18T22:47:57.003Z,223.57
2023-12-18T22:50:28.284Z,217.77
2023-12-18T22:52:56.453Z,219.17
2023-12-18T22:55:25.136Z,209.80
2023-12-18T22:57:53.485Z,207.93
2023-12-18T23:00:28.990Z,214.83
2023-12-18T23:02:57.682Z,222.90
2023-12-18T23:05:26.946Z,218.43
2023-12-18T23:07:55.379Z,223.30
2023-12-18T23:10:23.483Z,226.53
2023-12-18T23:12:51.785Z,222.63
2023-12-18T23:15:20.873Z,228.13
2023-12-18T23:17:51.032Z,235.97
2023-12-18T23:20:19.241Z,234.23
2023-12-18T23:22:47.855Z,240.10
2023-12-18T23:25:16.794Z,247.13
2023-12-18T23:27:45.469Z,233.30
2023-12-18T23:30:13.999Z,216.13
2023-12-18T23:32:42.620Z,225.03
2023-12-18T23:35:12.354Z,233.13
2023-12-18T23:37:40.565Z,247.50
2023-12-18T23:40:10.278Z,188.27
2023-12-18T23:42:38.614Z,167.40
2023-12-18T23:45:08.093Z,212.43
2023-12-18T23:47:36.301Z,188.40
2023-12-18T23:50:04.688Z,175.57
2023-12-18T23:52:34.193Z,183.57
2023-12-18T23:55:02.293Z,122.57
2023-12-18T23:57:30.486Z,131.00
2023-12-18T23:59:58.596Z,100.77
